Terminal Aerodrome Forecast
Issued by NWS

Home | Current Version | Previous Version | Text Only | Print | Product List | Glossary On
Versions: 1 2 3 4 5 6 7 8 9 10 11 12 13 14 15 16 17 18 19 20 21 22 23 24 25 26 27 28 29 30 31
000
FTUS41 KOKX 021700
TAFTEB
TAF
KTEB 021737Z 0218/0318 25008KT P6SM SCT050
     FM030200 25008KT P6SM VCSH BKN050
     FM030500 28008KT P6SM SCT050 SCT150
     FM030900 32008KT P6SM SCT250=

USA.gov is the U.S. government's official web portal to all federal, state and local government web resources and services.